createdAt,value
2019-04-10T00:00:44.103Z,6.50
2019-04-10T00:03:25.501Z,7.10
2019-04-10T00:05:43.002Z,6.70
2019-04-10T00:08:12.313Z,7.00
2019-04-10T00:10:40.902Z,7.90
2019-04-10T00:13:10.081Z,6.75
2019-04-10T00:15:38.630Z,6.35
2019-04-10T00:18:07.427Z,6.83
2019-04-10T00:20:36.503Z,7.15
2019-04-10T00:23:05.093Z,6.22
2019-04-10T00:25:33.534Z,7.40
2019-04-10T00:28:03.182Z,6.58
2019-04-10T00:30:31.754Z,6.40
2019-04-10T00:33:00.571Z,6.75
2019-04-10T00:35:29.750Z,6.80
2019-04-10T00:37:58.345Z,7.50
2019-04-10T00:40:27.652Z,9.03
2019-04-10T00:42:57.279Z,7.45
2019-04-10T00:45:27.175Z,7.65
2019-04-10T00:47:55.651Z,7.80
2019-04-10T00:50:24.095Z,7.47
2019-04-10T00:52:52.638Z,7.75
2019-04-10T00:55:21.813Z,8.25
2019-04-10T00:57:50.335Z,8.03
2019-04-10T01:00:19.174Z,7.47
2019-04-10T01:02:47.683Z,7.50
2019-04-10T01:05:17.305Z,7.75
2019-04-10T01:07:46.989Z,7.22
2019-04-10T01:10:17.757Z,8.25
2019-04-10T01:12:46.398Z,8.55
2019-04-10T01:15:14.815Z,8.10
2019-04-10T01:17:43.395Z,7.85
2019-04-10T01:20:11.883Z,8.70
2019-04-10T01:22:41.388Z,8.23
2019-04-10T01:25:10.344Z,8.98
2019-04-10T01:27:38.907Z,8.18
2019-04-10T01:30:08.632Z,9.00
2019-04-10T01:32:37.225Z,8.05
2019-04-10T01:35:07.844Z,7.95
2019-04-10T01:37:48.668Z,8.18
2019-04-10T01:40:08.386Z,8.35
2019-04-10T01:42:36.921Z,9.15
2019-04-10T01:45:07.200Z,9.13
2019-04-10T01:47:35.707Z,8.58
2019-04-10T01:50:04.683Z,8.90
2019-04-10T01:52:33.307Z,8.78
2019-04-10T01:55:03.287Z,9.05
2019-04-10T01:57:32.498Z,8.93
2019-04-10T02:00:00.974Z,9.00
2019-04-10T02:02:31.651Z,9.05
2019-04-10T02:05:00.677Z,9.68
2019-04-10T02:07:29.918Z,7.97
2019-04-10T02:09:59.516Z,9.00
2019-04-10T02:12:28.486Z,9.53
2019-04-10T02:14:57.006Z,8.48
2019-04-10T02:17:25.475Z,10.08
2019-04-10T02:19:54.550Z,8.98
2019-04-10T02:22:23.050Z,10.13
2019-04-10T02:24:51.550Z,9.48
2019-04-10T02:27:20.412Z,10.05
2019-04-10T02:29:48.931Z,8.73
2019-04-10T02:32:18.937Z,10.15
2019-04-10T02:34:48.954Z,9.83
2019-04-10T02:37:19.223Z,9.83
2019-04-10T02:39:52.291Z,10.53
2019-04-10T02:42:18.593Z,9.65
2019-04-10T02:44:48.334Z,9.75
2019-04-10T02:47:19.037Z,10.18
2019-04-10T02:49:49.234Z,10.03
2019-04-10T02:52:17.767Z,10.10
2019-04-10T02:54:46.210Z,11.05
2019-04-10T02:57:14.703Z,10.00
2019-04-10T02:59:43.314Z,10.32
2019-04-10T03:02:13.902Z,11.20
2019-04-10T03:04:42.603Z,9.93
2019-04-10T03:07:11.555Z,9.93
2019-04-10T03:09:53.540Z,9.73
2019-04-10T03:12:12.522Z,9.90
2019-04-10T03:14:41.481Z,9.45
2019-04-10T03:17:12.161Z,9.03
2019-04-10T03:19:41.374Z,10.35
2019-04-10T03:22:10.500Z,9.35
2019-04-10T03:24:40.083Z,9.75
2019-04-10T03:27:08.726Z,10.58
2019-04-10T03:29:38.000Z,9.35
2019-04-10T03:32:28.480Z,10.55
2019-04-10T03:34:56.620Z,9.43
2019-04-10T03:37:26.424Z,10.00
2019-04-10T03:39:55.272Z,9.95
2019-04-10T03:42:23.792Z,9.50
2019-04-10T03:44:52.260Z,9.93
2019-04-10T03:47:20.709Z,16.20
2019-04-10T03:49:49.853Z,10.55
2019-04-10T03:52:19.020Z,10.65
2019-04-10T03:54:48.167Z,10.30
2019-04-10T03:57:16.697Z,9.95
2019-04-10T03:59:45.479Z,11.55
2019-04-10T04:02:14.007Z,9.75
2019-04-10T04:04:42.539Z,11.18
2019-04-10T04:07:11.308Z,10.30
2019-04-10T04:09:39.838Z,11.08
2019-04-10T04:12:08.478Z,21.80
2019-04-10T04:14:37.023Z,11.08
2019-04-10T04:17:06.093Z,10.43
2019-04-10T04:19:34.693Z,11.43
2019-04-10T04:22:04.031Z,11.85
2019-04-10T04:24:33.527Z,11.55
2019-04-10T04:27:02.771Z,11.53
2019-04-10T04:29:32.301Z,11.88
2019-04-10T04:32:01.218Z,11.60
2019-04-10T04:34:29.723Z,11.57
2019-04-10T04:36:58.195Z,11.85
2019-04-10T04:39:28.402Z,11.65
2019-04-10T04:41:56.826Z,10.50
2019-04-10T04:44:25.284Z,10.58
2019-04-10T04:46:53.787Z,11.95
2019-04-10T04:49:22.217Z,11.00
2019-04-10T04:51:50.694Z,10.32
2019-04-10T04:54:19.267Z,10.70
2019-04-10T04:56:48.377Z,11.28
2019-04-10T04:59:16.937Z,9.33
2019-04-10T05:01:45.427Z,12.00
2019-04-10T05:04:13.868Z,10.78
2019-04-10T05:06:42.344Z,10.32
2019-04-10T05:09:11.254Z,11.53
2019-04-10T05:11:39.832Z,11.88
2019-04-10T05:14:08.308Z,11.22
2019-04-10T05:16:36.800Z,10.45
2019-04-10T05:19:05.272Z,10.25
2019-04-10T05:21:33.722Z,10.95
2019-04-10T05:24:03.233Z,10.95
2019-04-10T05:26:32.331Z,10.82
2019-04-10T05:29:00.852Z,10.55
2019-04-10T05:31:29.302Z,10.40
2019-04-10T05:33:57.774Z,9.45
2019-04-10T05:36:26.282Z,10.50
2019-04-10T05:38:54.711Z,10.10
2019-04-10T05:41:24.376Z,10.18
2019-04-10T05:43:53.059Z,9.90
2019-04-10T05:46:22.790Z,11.25
2019-04-10T05:48:52.559Z,11.65
2019-04-10T05:51:21.334Z,10.00
2019-04-10T05:53:52.288Z,10.10
2019-04-10T05:56:20.697Z,10.10
2019-04-10T05:58:49.196Z,12.33
2019-04-10T06:01:29.997Z,10.23
2019-04-10T06:03:49.175Z,9.68
2019-04-10T06:06:17.656Z,10.98
2019-04-10T06:08:47.077Z,9.90
2019-04-10T06:11:15.578Z,11.00
2019-04-10T06:13:45.072Z,9.75
2019-04-10T06:16:13.672Z,9.33
2019-04-10T06:18:43.059Z,9.03
2019-04-10T06:21:12.535Z,9.15
2019-04-10T06:23:41.379Z,10.03
2019-04-10T06:26:10.269Z,9.88
2019-04-10T06:28:38.743Z,9.68
2019-04-10T06:31:08.338Z,8.70
2019-04-10T06:33:37.043Z,9.18
2019-04-10T06:36:05.509Z,8.25
2019-04-10T06:38:34.788Z,9.40
2019-04-10T06:41:04.133Z,8.60
2019-04-10T06:43:32.995Z,8.68
2019-04-10T06:46:01.563Z,9.10
2019-04-10T06:48:30.054Z,8.73
2019-04-10T06:50:58.483Z,8.25
2019-04-10T06:53:26.965Z,8.38
2019-04-10T06:55:56.463Z,8.35
2019-04-10T06:58:25.496Z,7.33
2019-04-10T07:00:55.956Z,8.38
2019-04-10T07:03:33.889Z,8.40
2019-04-10T07:06:06.231Z,7.87
2019-04-10T07:08:27.517Z,8.28
2019-04-10T07:11:02.580Z,8.00
2019-04-10T07:13:26.225Z,7.55
2019-04-10T07:15:58.113Z,8.10
2019-04-10T07:18:24.863Z,6.80
2019-04-10T07:20:56.387Z,7.03
2019-04-10T07:23:27.460Z,7.37
2019-04-10T07:25:54.825Z,7.65
2019-04-10T07:28:23.805Z,6.78
2019-04-10T07:30:56.848Z,6.83
2019-04-10T07:33:22.678Z,6.10
2019-04-10T07:35:54.602Z,6.22
2019-04-10T07:38:22.503Z,6.28
2019-04-10T07:40:51.345Z,7.30
2019-04-10T07:43:24.495Z,6.47
2019-04-10T07:45:49.903Z,6.28
2019-04-10T07:48:18.483Z,6.20
2019-04-10T07:50:47.521Z,6.92
2019-04-10T07:53:16.997Z,6.42
2019-04-10T07:56:00.457Z,6.45
2019-04-10T07:58:17.359Z,5.97
2019-04-10T08:00:46.977Z,6.85
2019-04-10T08:03:16.651Z,6.00
2019-04-10T08:05:46.037Z,6.40
2019-04-10T08:08:14.499Z,6.83
2019-04-10T08:10:44.042Z,6.55
2019-04-10T08:13:14.120Z,6.25
2019-04-10T08:15:43.319Z,6.83
2019-04-10T08:18:12.286Z,6.72
2019-04-10T08:20:40.764Z,6.62
2019-04-10T08:23:10.134Z,7.47
2019-04-10T08:25:38.855Z,6.53
2019-04-10T08:28:07.339Z,6.53
2019-04-10T08:30:36.298Z,6.70
2019-04-10T08:33:06.047Z,5.78
2019-04-10T08:35:35.669Z,7.22
2019-04-10T08:38:05.386Z,6.83
2019-04-10T08:40:34.285Z,7.87
2019-04-10T08:43:04.044Z,6.75
2019-04-10T08:45:40.564Z,6.62
2019-04-10T08:48:03.678Z,7.33
2019-04-10T08:50:32.354Z,6.42
2019-04-10T08:53:01.993Z,6.67
2019-04-10T08:55:30.657Z,7.78
2019-04-10T08:58:00.638Z,7.75
2019-04-10T09:00:29.178Z,6.33
2019-04-10T09:02:58.180Z,6.87
2019-04-10T09:05:27.818Z,8.08
2019-04-10T09:07:56.934Z,7.15
2019-04-10T09:10:26.059Z,5.75
2019-04-10T09:12:55.947Z,8.13
2019-04-10T09:15:25.752Z,9.65
2019-04-10T09:17:54.290Z,8.55
2019-04-10T09:20:22.734Z,7.47
2019-04-10T09:23:14.534Z,6.62
2019-04-10T09:25:21.403Z,6.42
2019-04-10T09:27:49.892Z,6.62
2019-04-10T09:30:18.519Z,6.85
2019-04-10T09:32:47.013Z,7.53
2019-04-10T09:35:16.371Z,6.35
2019-04-10T09:37:46.182Z,7.05
2019-04-10T09:40:16.286Z,6.65
2019-04-10T09:42:45.878Z,6.30
2019-04-10T09:45:15.762Z,9.03
2019-04-10T09:47:44.310Z,7.70
2019-04-10T09:50:15.114Z,6.97
2019-04-10T09:52:44.053Z,6.40
2019-04-10T09:55:13.775Z,8.07
2019-04-10T09:57:43.101Z,7.37
2019-04-10T10:00:12.071Z,7.87
2019-04-10T10:02:40.521Z,6.47
2019-04-10T10:05:09.161Z,8.33
2019-04-10T10:07:37.621Z,7.43
2019-04-10T10:10:08.742Z,8.43
2019-04-10T10:12:38.533Z,7.27
2019-04-10T10:15:09.486Z,7.80
2019-04-10T10:17:39.156Z,6.67
2019-04-10T10:20:08.383Z,6.70
2019-04-10T10:22:37.107Z,7.53
2019-04-10T10:25:07.441Z,8.10
2019-04-10T10:27:36.603Z,7.20
2019-04-10T10:30:07.560Z,7.00
2019-04-10T10:32:37.087Z,6.87
2019-04-10T10:35:09.439Z,6.73
2019-04-10T10:37:38.856Z,6.63
2019-04-10T10:40:08.851Z,7.13
2019-04-10T10:42:39.811Z,8.07
2019-04-10T10:45:10.456Z,5.93
2019-04-10T10:47:40.201Z,5.77
2019-04-10T10:50:09.888Z,7.03
2019-04-10T10:52:38.288Z,6.37
2019-04-10T10:55:07.665Z,6.23
2019-04-10T10:57:37.373Z,6.50
2019-04-10T11:00:08.309Z,6.73
2019-04-10T11:02:37.992Z,6.10
2019-04-10T11:05:07.282Z,6.57
2019-04-10T11:07:36.043Z,6.10
2019-04-10T11:10:06.985Z,5.63
2019-04-10T11:12:35.777Z,5.47
2019-04-10T11:15:06.060Z,5.17
2019-04-10T11:17:35.721Z,6.30
2019-04-10T11:20:10.179Z,6.23
2019-04-10T11:22:39.719Z,6.30
2019-04-10T11:25:08.842Z,6.57
2019-04-10T11:27:37.245Z,9.80
2019-04-10T11:30:10.147Z,6.33
2019-04-10T11:32:38.762Z,6.63
2019-04-10T11:35:08.984Z,8.20
2019-04-10T11:40:08.747Z,6.53
2019-04-10T11:42:39.649Z,6.83
2019-04-10T11:45:10.618Z,5.90
2019-04-10T11:47:39.850Z,7.00
2019-04-10T11:50:13.184Z,8.33
2019-04-10T11:52:45.259Z,6.60
2019-04-10T11:55:15.945Z,6.33
2019-04-10T11:57:42.133Z,6.30
2019-04-10T12:00:17.487Z,6.33
2019-04-10T12:02:47.019Z,6.93
2019-04-10T12:05:18.604Z,6.87
2019-04-10T12:08:27.935Z,6.83
2019-04-10T12:12:43.961Z,6.70
2019-04-10T12:15:12.429Z,7.10
2019-04-10T12:17:40.881Z,6.63
2019-04-10T12:20:09.620Z,6.93
2019-04-10T12:22:38.065Z,6.80
2019-04-10T12:25:07.064Z,8.00
2019-04-10T12:27:35.447Z,7.03
2019-04-10T12:30:06.893Z,6.03
2019-04-10T12:32:35.478Z,5.63
2019-04-10T12:35:06.743Z,6.00
2019-04-10T12:37:35.521Z,5.67
2019-04-10T12:40:06.302Z,6.97
2019-04-10T12:42:34.747Z,5.50
2019-04-10T12:45:06.177Z,5.90
2019-04-10T12:47:34.960Z,6.63
2019-04-10T12:50:05.819Z,5.63
2019-04-10T12:52:34.592Z,6.27
2019-04-10T12:55:03.970Z,5.43
2019-04-10T12:57:32.549Z,5.73
2019-04-10T13:00:04.153Z,7.20
2019-04-10T13:02:31.338Z,6.00
2019-04-10T13:05:00.795Z,6.40
2019-04-10T13:07:29.713Z,7.63
2019-04-10T13:09:58.274Z,6.63
2019-04-10T13:12:26.703Z,6.43
2019-04-10T13:14:55.180Z,6.37
2019-04-10T13:17:24.754Z,6.07
2019-04-10T13:19:53.437Z,6.47
2019-04-10T13:22:22.222Z,6.33
2019-04-10T13:24:50.805Z,5.60
2019-04-10T13:27:19.270Z,6.70
2019-04-10T13:29:48.620Z,5.73
2019-04-10T13:32:18.242Z,5.73
2019-04-10T13:34:46.878Z,5.77
2019-04-10T13:37:15.840Z,5.80
2019-04-10T13:39:44.397Z,6.40
2019-04-10T13:42:12.940Z,8.97
2019-04-10T13:44:42.252Z,6.77
2019-04-10T13:47:11.288Z,6.10
2019-04-10T13:49:40.066Z,6.03
2019-04-10T13:52:08.630Z,5.80
2019-04-10T13:54:37.093Z,5.67
2019-04-10T13:57:05.774Z,5.53
2019-04-10T13:59:35.197Z,5.97
2019-04-10T14:02:05.545Z,6.70
2019-04-10T14:04:35.400Z,6.50
2019-04-10T14:07:04.855Z,6.23
2019-04-10T14:09:40.590Z,6.50
2019-04-10T14:12:04.085Z,5.80
2019-04-10T14:14:32.899Z,7.80
2019-04-10T14:17:04.110Z,5.40
2019-04-10T14:19:31.874Z,6.23
2019-04-10T14:22:00.405Z,6.10
2019-04-10T14:24:39.282Z,6.20
2019-04-10T14:27:09.995Z,5.37
2019-04-10T14:29:38.653Z,5.43
2019-04-10T14:32:09.228Z,5.90
2019-04-10T14:34:38.681Z,5.93
2019-04-10T14:37:09.334Z,6.10
2019-04-10T14:39:37.904Z,6.00
2019-04-10T14:42:06.601Z,5.67
2019-04-10T14:44:35.135Z,6.20
2019-04-10T14:47:04.403Z,5.30
2019-04-10T14:49:33.449Z,5.10
2019-04-10T14:52:03.091Z,6.10
2019-04-10T14:54:32.183Z,4.80
2019-04-10T14:57:00.670Z,6.83
2019-04-10T14:59:29.131Z,5.53
2019-04-10T15:01:58.019Z,6.30
2019-04-10T15:04:26.913Z,5.53
2019-04-10T15:06:55.646Z,6.30
2019-04-10T15:09:26.063Z,5.80
2019-04-10T15:11:55.298Z,7.13
2019-04-10T15:14:23.881Z,6.23
2019-04-10T15:16:58.814Z,6.07
2019-04-10T15:19:22.723Z,5.40
2019-04-10T15:21:53.699Z,4.80
2019-04-10T15:24:21.686Z,5.27
2019-04-10T15:26:50.989Z,5.50
2019-04-10T15:29:20.428Z,5.07
2019-04-10T15:31:50.244Z,4.97
2019-04-10T15:34:18.808Z,5.73
2019-04-10T15:36:48.164Z,4.80
2019-04-10T15:39:17.524Z,7.00
2019-04-10T15:41:46.026Z,5.20
2019-04-10T15:44:15.366Z,5.70
2019-04-10T15:46:45.634Z,5.00
2019-04-10T15:49:15.280Z,5.00
2019-04-10T15:51:43.829Z,5.20
2019-04-10T15:54:12.334Z,5.30
2019-04-10T15:56:40.763Z,4.57
2019-04-10T15:59:10.126Z,5.00
2019-04-10T16:01:39.272Z,4.80
2019-04-10T16:04:08.664Z,4.60
2019-04-10T16:06:38.126Z,5.20
2019-04-10T16:09:07.813Z,4.60
2019-04-10T16:11:46.932Z,4.47
2019-04-10T16:14:21.985Z,5.30
2019-04-10T16:16:56.981Z,5.00
2019-04-10T16:19:30.964Z,5.10
2019-04-10T16:21:59.870Z,5.30
2019-04-10T16:24:29.419Z,5.57
2019-04-10T16:26:57.989Z,4.60
2019-04-10T16:29:26.739Z,4.90
2019-04-10T16:31:56.499Z,5.13
2019-04-10T16:34:25.150Z,4.90
2019-04-10T16:36:54.202Z,5.20
2019-04-10T16:39:23.311Z,18.50
2019-04-10T16:41:52.396Z,5.03
2019-04-10T16:44:21.334Z,5.30
2019-04-10T16:46:50.890Z,5.00
2019-04-10T16:49:20.309Z,5.60
2019-04-10T16:51:48.809Z,4.83
2019-04-10T16:54:19.075Z,5.17
2019-04-10T16:56:47.804Z,5.80
2019-04-10T16:59:16.397Z,5.73
2019-04-10T17:01:44.956Z,4.80
2019-04-10T17:04:14.491Z,4.80
2019-04-10T17:06:44.220Z,4.27
2019-04-10T17:09:14.485Z,4.83
2019-04-10T17:11:43.111Z,4.70
2019-04-10T17:14:11.580Z,5.23
2019-04-10T17:16:40.059Z,5.33
2019-04-10T17:19:09.741Z,4.97
2019-04-10T17:21:38.484Z,4.80
2019-04-10T17:24:07.198Z,4.87
2019-04-10T17:26:36.870Z,5.00
2019-04-10T17:29:06.976Z,4.87
2019-04-10T17:31:35.630Z,4.95
2019-04-10T17:34:04.171Z,4.83
2019-04-10T17:36:32.825Z,4.80
2019-04-10T17:39:02.830Z,9.10
2019-04-10T17:41:31.490Z,4.53
2019-04-10T17:44:02.071Z,5.12
2019-04-10T17:46:31.166Z,4.60
2019-04-10T17:48:59.652Z,4.70
2019-04-10T17:51:28.407Z,5.60
2019-04-10T17:53:57.950Z,7.67
2019-04-10T17:56:26.557Z,6.47
2019-04-10T17:58:56.010Z,5.42
2019-04-10T18:01:27.043Z,4.80
2019-04-10T18:03:58.982Z,4.85
2019-04-10T18:06:25.891Z,4.58
2019-04-10T18:08:54.339Z,5.10
2019-04-10T18:11:22.800Z,4.83
2019-04-10T18:13:51.268Z,4.92
2019-04-10T18:16:19.975Z,4.97
2019-04-10T18:18:48.707Z,4.85
2019-04-10T18:21:17.216Z,4.62
2019-04-10T18:23:45.688Z,5.70
2019-04-10T18:26:14.227Z,4.90
2019-04-10T18:28:43.585Z,4.72
2019-04-10T18:31:12.485Z,5.22
2019-04-10T18:33:41.002Z,5.10
2019-04-10T18:36:09.439Z,5.10
2019-04-10T18:38:37.902Z,6.65
2019-04-10T18:41:08.582Z,5.15
2019-04-10T18:43:36.755Z,5.67
2019-04-10T18:46:12.282Z,5.45
2019-04-10T18:48:35.622Z,5.80
2019-04-10T18:51:06.643Z,5.35
2019-04-10T18:53:35.189Z,6.00
2019-04-10T18:56:04.950Z,5.17
2019-04-10T18:58:40.860Z,6.20
2019-04-10T19:01:28.784Z,5.20
2019-04-10T19:04:09.998Z,5.97
2019-04-10T19:06:58.808Z,4.08
2019-04-10T19:09:30.281Z,5.67
2019-04-10T19:12:00.277Z,4.75
2019-04-10T19:14:30.237Z,5.10
2019-04-10T19:16:58.866Z,4.85
2019-04-10T19:19:28.192Z,5.55
2019-04-10T19:21:56.838Z,4.28
2019-04-10T19:24:28.108Z,5.00
2019-04-10T19:26:57.817Z,5.50
2019-04-10T19:29:27.498Z,5.83
2019-04-10T19:32:00.479Z,5.00
2019-04-10T19:34:29.517Z,5.17
2019-04-10T19:36:58.396Z,5.03
2019-04-10T19:39:26.879Z,4.15
2019-04-10T19:41:55.678Z,4.62
2019-04-10T19:44:24.292Z,4.78
2019-04-10T19:46:53.606Z,4.92
2019-04-10T19:49:23.834Z,4.65
2019-04-10T19:51:52.454Z,5.58
2019-04-10T19:54:21.942Z,4.67
2019-04-10T19:56:50.971Z,4.60
2019-04-10T19:59:20.760Z,4.30
2019-04-10T20:01:50.457Z,5.10
2019-04-10T20:04:19.160Z,5.05
2019-04-10T20:06:48.785Z,4.85
2019-04-10T20:09:18.019Z,4.72
2019-04-10T20:11:52.251Z,5.12
2019-04-10T20:14:16.861Z,6.45
2019-04-10T20:16:45.384Z,4.60
2019-04-10T20:19:14.960Z,5.67
2019-04-10T20:21:43.995Z,3.98
2019-04-10T20:24:12.556Z,4.78
2019-04-10T20:26:41.236Z,4.37
2019-04-10T20:29:10.853Z,4.72
2019-04-10T20:31:39.692Z,4.70
2019-04-10T20:34:09.405Z,4.33
2019-04-10T20:36:38.880Z,4.37
2019-04-10T20:39:09.453Z,4.47
2019-04-10T20:41:46.523Z,4.55
2019-04-10T20:44:09.288Z,4.15
2019-04-10T20:46:38.190Z,6.50
2019-04-10T20:49:08.441Z,4.37
2019-04-10T20:51:37.722Z,4.20
2019-04-10T20:54:06.581Z,4.78
2019-04-10T20:56:35.117Z,4.78
2019-04-10T20:59:03.580Z,4.40
2019-04-10T21:01:33.032Z,4.03
2019-04-10T21:04:01.510Z,4.10
2019-04-10T21:06:29.975Z,13.20
2019-04-10T21:08:58.774Z,5.50
2019-04-10T21:11:27.352Z,3.83
2019-04-10T21:13:56.582Z,4.50
2019-04-10T21:16:25.297Z,4.50
2019-04-10T21:18:53.927Z,4.15
2019-04-10T21:21:22.439Z,4.53
2019-04-10T21:23:52.043Z,3.90
2019-04-10T21:26:21.900Z,4.00
2019-04-10T21:28:51.522Z,4.15
2019-04-10T21:31:38.589Z,4.05
2019-04-10T21:34:21.823Z,4.55
2019-04-10T21:36:51.198Z,5.12
2019-04-10T21:39:19.756Z,5.58
2019-04-10T21:41:48.828Z,4.42
2019-04-10T21:44:18.279Z,4.45
2019-04-10T21:46:46.886Z,4.03
2019-04-10T21:49:15.549Z,4.10
2019-04-10T21:51:44.843Z,4.58
2019-04-10T21:54:14.104Z,4.67
2019-04-10T21:56:43.146Z,4.42
2019-04-10T21:59:11.696Z,4.35
2019-04-10T22:01:40.435Z,4.00
2019-04-10T22:04:10.218Z,4.40
2019-04-10T22:06:40.531Z,4.83
2019-04-10T22:09:14.554Z,4.58
2019-04-10T22:11:45.604Z,4.22
2019-04-10T22:14:15.076Z,4.60
2019-04-10T22:16:44.347Z,4.78
2019-04-10T22:19:12.940Z,4.58
2019-04-10T22:21:41.949Z,4.17
2019-04-10T22:24:11.580Z,4.42
2019-04-10T22:26:40.345Z,4.12
2019-04-10T22:29:10.615Z,4.72
2019-04-10T22:31:39.507Z,4.67
2019-04-10T22:34:10.173Z,4.45
2019-04-10T22:36:39.512Z,5.10
2019-04-10T22:39:10.894Z,5.28
2019-04-10T22:41:40.466Z,4.55
2019-04-10T22:44:09.732Z,4.67
2019-04-10T22:46:38.458Z,5.05
2019-04-10T22:49:06.950Z,5.10
2019-04-10T22:51:35.658Z,4.97
2019-04-10T22:54:04.377Z,5.25
2019-04-10T22:56:33.673Z,5.35
2019-04-10T22:59:02.181Z,5.25
2019-04-10T23:01:31.296Z,5.50
2019-04-10T23:03:59.789Z,5.05
2019-04-10T23:06:29.249Z,3.85
2019-04-10T23:08:58.086Z,4.47
2019-04-10T23:11:39.080Z,4.92
2019-04-10T23:13:56.859Z,4.78
2019-04-10T23:16:26.157Z,4.87
2019-04-10T23:18:54.623Z,4.45
2019-04-10T23:21:23.103Z,4.22
2019-04-10T23:23:51.743Z,4.28
2019-04-10T23:26:20.888Z,5.22
2019-04-10T23:28:50.043Z,5.05
2019-04-10T23:31:18.702Z,5.03
2019-04-10T23:33:48.189Z,5.03
2019-04-10T23:36:16.763Z,4.53
2019-04-10T23:38:45.880Z,4.65
2019-04-10T23:41:15.610Z,4.95
2019-04-10T23:43:44.257Z,4.47
2019-04-10T23:46:12.831Z,5.12
2019-04-10T23:48:41.292Z,4.78
2019-04-10T23:51:10.576Z,4.75
2019-04-10T23:53:39.105Z,4.53
2019-04-10T23:56:07.584Z,3.95
2019-04-10T23:58:36.476Z,5.75
